Flight Track Log - Related Links

Times and Time Zones

All times are in EDT time to prevent confusion due to time zone crossing. See the CHQ6089 flight status page for this flight to view local times or setup timezone preferences in your user account.

Time Position Orientation Groundspeed Altitude Reporting Facility
EDT Latitude Longitude Course Direction KTS MPH feet Rate Location/Type
Fri 06:11:02 AM 38.1303 -85.7128 99° East 171 197 31,000  Level Indianapolis Center
Fri 06:12:03 AM 38.0850 -85.6800 150° Southeast 220 253 4,400 -12,050 Descending Indianapolis Center
Fri 06:13:00 AM 38.0667 -85.3832 90° East  Level FlightAware Approximate
Fri 06:13:03 AM 38.0811 -85.6006 94° East 228 262 6,700  Level Indianapolis Center
Fri 06:14:00 AM 38.0595 -85.2438 103° East  Level FlightAware Approximate
Fri 06:14:04 AM 38.0781 -85.5111 92° East 252 290 8,600  Level Indianapolis Center
Fri 06:15:00 AM 38.0346 -85.1070 103° East  Level FlightAware Approximate
Fri 06:15:05 AM 38.0753 -85.4125 92° East 276 318 10,700  Level Indianapolis Center
Fri 06:16:00 AM 38.0196 -84.9736 99° East  Level FlightAware Approximate
Fri 06:16:05 AM 38.0697 -85.3083 94° East 293 337 12,400  Level Indianapolis Center
Fri 06:17:06 AM 38.0642 -85.1919 93° East 314 361 13,900 1,525 Climbing Indianapolis Center
Fri 06:18:07 AM 38.0581 -85.0772 94° East 330 380 15,500 1,537 Climbing Indianapolis Center
Fri 06:19:07 AM 38.0514 -84.9558 94° East 341 392 17,000 1,438 Climbing Indianapolis Center
Fri 06:20:08 AM 38.0444 -84.8322 94° East 346 398 18,400 1,438 Climbing Indianapolis Center
Fri 06:21:08 AM 38.0372 -84.7081 94° East 351 404 19,900 1,488 Climbing Indianapolis Center
Fri 06:22:09 AM 38.0300 -84.5814 94° East 359 413 21,400 1,475 Climbing Indianapolis Center
Fri 06:23:10 AM 38.0231 -84.4539 94° East 361 415 22,900 1,488 Climbing Indianapolis Center
Fri 06:24:10 AM 38.0147 -84.3253 95° East 364 419 24,400 1,488 Climbing Indianapolis Center
Fri 06:25:11 AM 38.0069 -84.1961 94° East 366 421 25,900 1,475 Climbing Indianapolis Center
Fri 06:26:12 AM 37.9992 -84.0658 94° East 368 423 27,400 1,488 Climbing Indianapolis Center
Fri 06:27:12 AM 37.9911 -83.9350 94° East 369 425 28,900 1,488 Climbing Indianapolis Center
Fri 06:28:13 AM 37.9842 -83.8022 94° East 377 434 30,400 1,041 Climbing Indianapolis Center
Fri 06:29:13 AM 37.9758 -83.6711 95° East 375 432 31,000 298 Climbing Indianapolis Center
Fri 06:30:14 AM 37.9656 -83.5242 95° East 411 473 31,000  Level Indianapolis Center
Fri 06:31:15 AM 37.9542 -83.3706 95° East 430 495 31,000  Level Indianapolis Center
Fri 06:32:15 AM 37.9436 -83.2056 95° East 457 526 31,000  Level Indianapolis Center
Fri 06:33:16 AM 37.9322 -83.0478 95° East 453 521 31,000  Level Indianapolis Center
Fri 06:34:17 AM 37.9214 -82.8953 95° East 440 506 31,000  Level Indianapolis Center
Fri 06:35:17 AM 37.9108 -82.7372 95° East 445 512 31,000  Level Indianapolis Center
Fri 06:36:18 AM 37.8997 -82.5817 95° East 443 510 31,000  Level Indianapolis Center
Fri 06:37:19 AM 37.8869 -82.4247 96° East 446 513 31,000  Level Indianapolis Center
Fri 06:38:19 AM 37.8756 -82.2656 95° East 451 519 31,000  Level Indianapolis Center
Fri 06:39:20 AM 37.8611 -82.0861 96° East 456 525 31,000  Level Indianapolis Center
Fri 06:40:21 AM 37.8475 -81.9275 96° East 456 525 31,000  Level Indianapolis Center
Fri 06:41:21 AM 37.8356 -81.7719 96° East 450 518 31,000  Level Indianapolis Center
Fri 06:42:22 AM 37.8239 -81.6344 96° East 443 510 31,000  Level Indianapolis Center
Fri 06:43:23 AM 37.8094 -81.4703 96° East 439 505 31,000  Level Indianapolis Center
Fri 06:44:24 AM 37.7972 -81.3214 96° East 439 505 31,000  Level Indianapolis Center
Fri 06:45:24 AM 37.7842 -81.1739 96° East 434 499 31,000  Level Indianapolis Center
Fri 06:46:25 AM 37.7892 -80.9994 88° East 426 490 31,000  Level Indianapolis Center
Fri 06:47:26 AM 37.7989 -80.8528 85° East 430 495 31,000  Level Indianapolis Center
Fri 06:48:26 AM 37.8078 -80.7061 86° East 431 496 31,000  Level Indianapolis Center
Fri 06:49:27 AM 37.8172 -80.5603 85° East 433 498 31,000  Level Indianapolis Center
Fri 06:50:28 AM 37.8269 -80.4089 85° East 435 501 31,000  Level Indianapolis Center
Fri 06:51:29 AM 37.8372 -80.2308 86° East 435 501 31,000  Level Indianapolis Center
Fri 06:52:29 AM 37.8464 -80.0808 86° East 437 503 31,000  Level Indianapolis Center
Fri 06:53:30 AM 37.8556 -79.9297 86° East 439 505 31,000  Level Indianapolis Center
Fri 06:54:31 AM 37.8644 -79.7781 86° East 441 507 31,000  Level Indianapolis Center
Fri 06:55:32 AM 37.8725 -79.6264 86° East 440 506 31,000  Level Indianapolis Center
Fri 06:56:33 AM 37.8808 -79.4728 86° East 444 511 31,000  Level Indianapolis Center
Fri 06:57:44 AM 37.8931 -79.2889 85° East 438 504 31,000  Level Washington Center
Fri 06:58:41 AM 37.9042 -79.1289 85° East 438 504 31,000  Level Washington Center
Fri 06:59:42 AM 37.9192 -78.9769 83° East 438 504 31,000  Level Washington Center
Fri 07:00:43 AM 37.9406 -78.8067 81° East 446 513 31,000  Level Washington Center
Fri 07:01:43 AM 37.9589 -78.6547 81° East 446 513 31,000  Level Washington Center
Fri 07:02:44 AM 37.9775 -78.5000 81° East 441 507 31,000  Level Washington Center
Fri 07:03:42 AM 37.9936 -78.3506 82° East 441 507 31,000  Level Washington Center
Fri 07:04:43 AM 38.0111 -78.2114 81° East 441 507 31,000  Level Washington Center
Fri 07:05:44 AM 38.0183 -78.0719 86° East 441 507 31,000  Level Washington Center
Fri 07:06:41 AM 38.0281 -77.9036 86° East 441 507 31,000  Level Washington Center
Fri 07:07:42 AM 38.0664 -77.7467 73° East 419 482 31,000  Level Washington Center
Fri 07:08:43 AM 38.1228 -77.6189 61° Northeast 419 482 31,000  Level Washington Center
Fri 07:09:41 AM 38.1811 -77.4936 59° Northeast 409 471 31,000  Level Washington Center
Fri 07:10:42 AM 38.2372 -77.3681 60° Northeast 409 471 31,000  Level Washington Center
Fri 07:11:42 AM 38.2953 -77.2400 60° Northeast 409 471 31,000  Level Washington Center
Fri 07:12:43 AM 38.3533 -77.1167 59° Northeast 409 471 31,000  Level Washington Center
Fri 07:13:43 AM 38.4111 -76.9908 60° Northeast 409 471 31,000  Level Washington Center
Fri 07:14:44 AM 38.4689 -76.8619 60° Northeast 409 471 31,000  Level Washington Center
Fri 07:15:41 AM 38.5244 -76.7356 61° Northeast 409 471 31,000  Level Washington Center
Fri 07:16:42 AM 38.5817 -76.6061 60° Northeast 409 471 31,000  Level Washington Center
Fri 07:17:42 AM 38.6411 -76.4767 60° Northeast 415 478 31,000 -393 Level Washington Center
Fri 07:18:44 AM 38.7025 -76.3392 60° Northeast 422 486 30,200 -900 Descending Washington Center
Fri 07:19:42 AM 38.7803 -76.2122 52° Northeast 433 498 29,200 -966 Descending Washington Center
Fri 07:20:42 AM 38.8517 -76.1061 49° Northeast 440 506 28,300 -942 Descending Washington Center
Fri 07:21:43 AM 38.9314 -75.9811 51° Northeast 445 512 27,300 -645 Descending Washington Center
Fri 07:22:43 AM 39.0131 -75.8561 50° Northeast 452 520 27,000 -545 Descending Washington Center
Fri 07:23:44 AM 39.0944 -75.7333 49° Northeast 452 520 26,200 -958 Descending Washington Center
Fri 07:24:42 AM 39.1739 -75.6131 50° Northeast 447 514 25,100 -1,068 Descending Washington Center
Fri 07:25:42 AM 39.2572 -75.4950 48° Northeast 447 514 24,100 -1,000 Descending Washington Center
Fri 07:26:42 AM 39.3550 -75.4092 34° Northeast 431 496 23,100 -1,041 Descending Washington Center
Fri 07:27:43 AM 39.4550 -75.3228 34° Northeast 431 496 22,000 -1,109 Descending Washington Center
Fri 07:28:41 AM 39.5506 -75.2336 36° Northeast 431 496 20,900 -1,350 Descending Washington Center
Fri 07:29:43 AM 39.6461 -75.1414 37° Northeast 425 489 19,300 -1,561 Descending Washington Center
Fri 07:30:44 AM 39.7497 -75.0517 34° Northeast 420 483 17,700 -1,678 Descending Washington Center
Fri 07:31:41 AM 39.8308 -74.9808 34° Northeast 405 466 16,000 -1,850 Descending Washington Center
Fri 07:32:44 AM 39.9281 -74.8908 35° Northeast 391 450 14,000 -1,872 Descending Washington Center
Fri 07:33:30 AM 39.9833 -74.8167 46° Northeast 385 443 12,600 -1,607 Descending New York TRACON
Fri 07:34:36 AM 40.0667 -74.7000 47° Northeast 363 418 11,000 -1,300 Descending New York TRACON
Fri 07:35:30 AM 40.1167 -74.6167 52° Northeast 356 410 10,000 -526 Descending New York TRACON
Fri 07:36:30 AM 40.1833 -74.5167 49° Northeast 357 411 10,000 -263 Level New York TRACON
Fri 07:37:24 AM 40.2500 -74.4500 37° Northeast 293 337 9,500 -1,050 Descending New York TRACON
Fri 07:38:30 AM 40.3000 -74.3667 52° Northeast 281 323 7,900 -1,250 Descending New York TRACON
Fri 07:39:24 AM 40.3500 -74.3167 37° Northeast 256 295 7,000 -474 Descending New York TRACON
Fri 07:40:24 AM 40.4000 -74.2667 37° Northeast 225 259 7,000  Level New York TRACON
Fri 07:41:24 AM 40.4500 -74.2167 37° Northeast 232 267 7,000 -571 Level New York TRACON
Fri 07:42:30 AM 40.5167 -74.1500 37° Northeast 223 257 5,800 -1,238 Descending New York TRACON
Fri 07:43:30 AM 40.5500 -74.1000 49° Northeast 221 254 4,400 -900 Descending New York TRACON
Fri 07:44:30 AM 40.6000 -74.0500 37° Northeast 212 244 4,000 -200 Descending New York TRACON
Fri 07:45:30 AM 40.6500 -74.0167 27° Northeast 215 247 4,000  Level New York TRACON
Fri 07:46:30 AM 40.7000 -73.9667 37° Northeast 210 242 4,000  Level New York TRACON
Fri 07:47:30 AM 40.7167 -73.8833 75° East 220 253 4,000  Level New York TRACON
Fri 07:48:24 AM 40.7500 -73.8333 49° Northeast 222 255 4,000  Level New York TRACON
Fri 07:49:24 AM 40.7833 -73.7667 57° Northeast 216 249 4,000  Level New York TRACON
Fri 07:50:24 AM 40.8167 -73.7000 57° Northeast 221 254 4,000 -571 Level New York TRACON
Fri 07:51:30 AM 40.7833 -73.6333 123° Southeast 227 261 2,800 -950 Descending New York TRACON
Fri 07:52:24 AM 40.7333 -73.6167 166° South 221 254 2,100 -421 Descending New York TRACON
Fri 07:53:24 AM 40.7000 -73.6667 229° Southwest 201 231 2,000 -50 Descending New York TRACON
Fri 07:54:24 AM 40.7167 -73.7333 288° West 167 192 2,000  Level New York TRACON

Login

Don't have an account? Register now (free) for customized features, flight alerts, and more!